Terminal Aerodrome Forecast
Issued by NWS Sioux Falls, SD

Home | Current Version | Previous Version | Graphics & Text | Print | Product List | Glossary On
Versions: 1 2 3 4 5 6 7 8 9 10 11 12 13 14 15 16
943
FTUS43 KFSD 111120
TAFHON
TAF
KHON 111120Z 1112/1212 31020G32KT P6SM OVC060
     FM111400 32024G35KT P6SM VCSH OVC025
     FM112200 35018G28KT P6SM BKN045
     FM120000 35014G25KT P6SM SCT050
     FM120200 35011KT P6SM SCT090=

USA.gov is the U.S. government's official web portal to all federal, state and local government web resources and services.